Home > Products > Valid Products > TAF

000
FTUS43 KDVN 010500
TAFDBQ
TAF
KDBQ 010520Z 0106/0206 22003KT P6SM SCT080
     FM011600 26005KT P6SM SCT050=



000
FTUS43 KDVN 010500
TAFCID
TAF
KCID 010520Z 0106/0206 VRB03KT P6SM SCT080
      TEMPO 0110/0113 5SM BR
     FM011500 26005KT P6SM SCT040=



000
FTUS43 KDVN 010500
TAFBRL
TAF
KBRL 010520Z 0106/0206 00000KT P6SM VCSH BKN120
     FM010700 VRB03KT P6SM SCT150
      TEMPO 0110/0112 3SM BR
     FM011600 24005KT P6SM SCT040=



000
FTUS43 KDVN 010500
TAFMLI
TAF
KMLI 010520Z 0106/0206 VRB03KT P6SM SCT070
     FM011600 26005KT P6SM SCT050=



000
FTUS43 KDVN 010200 AAA
TAFBRL
TAF AMD
KBRL 010232Z 0103/0124 00000KT 5SM BR SCT150
      TEMPO 0103/0104 4SM BR
     FM010400 VRB03KT P6SM VCSH SCT080 BKN150
     FM010700 VRB03KT P6SM SCT150
      TEMPO 0110/0112 4SM BR
     FM011600 22005KT P6SM SCT040=



000
FTUS43 KDVN 312300
TAFMLI
TAF
KMLI 312320Z 0100/0124 25005KT P6SM SCT060
     FM011600 25006KT P6SM SCT050=



000
FTUS43 KDVN 312300
TAFCID
TAF
KCID 312320Z 0100/0124 27006KT P6SM SCT050
      TEMPO 0110/0113 5SM BR
     FM011500 20005KT P6SM SCT040=



000
FTUS43 KDVN 312300
TAFBRL
TAF
KBRL 312320Z 0100/0124 26006KT P6SM SCT100
      TEMPO 0110/0112 4SM BR
     FM011600 22005KT P6SM SCT040=



000
FTUS43 KDVN 312300
TAFDBQ
TAF
KDBQ 312320Z 0100/0124 26008KT P6SM SCT060
     FM010200 VRB03KT P6SM SKC
     FM011600 24006KT P6SM SCT050=



000
FTUS43 KDVN 311700
TAFBRL
TAF
KBRL 311720Z 3118/0118 25007KT P6SM SCT040
     FM010200 VRB03KT P6SM SCT050
     FM011000 23003KT 6SM BR SCT200
     FM011600 22004KT P6SM FEW040=



000
FTUS43 KDVN 311700
TAFCID
TAF
KCID 311720Z 3118/0118 28009KT P6SM SCT040
     FM312100 29008KT P6SM BKN040
     FM010200 VRB03KT P6SM SCT050
     FM011000 23003KT 6SM BR SCT200
     FM011600 25006KT P6SM FEW040=



000
FTUS43 KDVN 311700
TAFMLI
TAF
KMLI 311720Z 3118/0118 28008KT P6SM SCT040
     FM010200 VRB03KT P6SM SCT050
     FM011000 23003KT 6SM BR SCT200
     FM011600 23004KT P6SM FEW040=



000
FTUS43 KDVN 311700
TAFDBQ
TAF
KDBQ 311720Z 3118/0118 28009KT P6SM BKN050
     FM010200 26003KT P6SM SCT050
     FM011000 26003KT 6SM BR SCT200
     FM011600 25006KT P6SM FEW040=



000
FTUS43 KDVN 311100
TAFDBQ
TAF
KDBQ 311134Z 3112/0112 VRB03KT P6SM SKC
     FM311600 27007KT P6SM SCT050
     FM010200 23003KT P6SM SKC
      TEMPO 0111/0112 5SM BR=



000
FTUS43 KDVN 311100
TAFCID
TAF
KCID 311134Z 3112/0112 29005KT P6SM SKC
      TEMPO 3112/3113 6SM BR
     FM311700 27007KT P6SM SCT050
     FM010300 25004KT P6SM SCT250
     FM011100 22003KT 5SM BR SKC=



000
FTUS43 KDVN 311100
TAFMLI
TAF
KMLI 311134Z 3112/0112 27004KT P6SM SKC
     FM311700 28007KT P6SM SCT050
     FM010300 24004KT P6SM SCT100 SCT250=



000
FTUS43 KDVN 311100
TAFBRL
TAF
KBRL 311134Z 3112/0112 VRB03KT P6SM SKC
      TEMPO 3112/3113 4SM BR
     FM311700 27007KT P6SM SCT050
     FM010300 24004KT P6SM SCT100 SCT250
     FM011000 VRB03KT 5SM BR SKC
      TEMPO 0110/0112 1SM BR=



000
FTUS43 KDVN 311000 AAA
TAFBRL
TAF AMD
KBRL 311034Z 3111/0106 VRB03KT 6SM BR SKC
      TEMPO 3111/3113 1SM BR SCT010
     FM311400 26005KT P6SM SCT050
     FM010100 VRB02KT P6SM SKC=



000
FTUS43 KDVN 310900 AAA
TAFCID
TAF AMD
KCID 310913Z 3109/0106 30004KT P6SM SKC
      TEMPO 3111/3113 5SM BR
     FM311400 26007KT P6SM SCT050
     FM010100 28003KT P6SM SKC=



000
FTUS43 KDVN 310900 AAA
TAFDBQ
TAF AMD
KDBQ 310913Z 3109/0106 VRB03KT P6SM SKC
      TEMPO 3111/3113 5SM BR
     FM311400 27007KT P6SM SCT050
     FM010100 27003KT P6SM SKC=



000
FTUS43 KDVN 310500
TAFBRL
TAF
KBRL 310520Z 3106/0106 31003KT P6SM SKC
     FM310900 30003KT 6SM BR FEW010
     FM311400 26005KT P6SM SCT050
     FM010100 VRB02KT P6SM SKC=



000
FTUS43 KDVN 310500
TAFDBQ
TAF
KDBQ 310520Z 3106/0106 31003KT P6SM SKC
     FM310900 28004KT 5SM BR FEW010
     FM311400 27007KT P6SM SCT050
     FM010100 27003KT P6SM SKC=



000
FTUS43 KDVN 310500
TAFMLI
TAF
KMLI 310520Z 3106/0106 25003KT P6SM SKC
     FM310900 28003KT 6SM BR FEW010
     FM311400 27006KT P6SM SCT050
     FM010100 27003KT P6SM SKC=



000
FTUS43 KDVN 310500
TAFCID
TAF
KCID 310520Z 3106/0106 30004KT P6SM SKC
     FM310900 29003KT 5SM BR FEW010
     FM311400 26007KT P6SM SCT050
     FM010100 28003KT P6SM SKC=



000
FTUS43 KDVN 302300
TAFCID
TAF
KCID 302325Z 3100/3124 33004KT P6SM SKC
     FM311000 29003KT 6SM BR FEW010
     FM311500 26007KT P6SM FEW045=



000
FTUS43 KDVN 302300
TAFMLI
TAF
KMLI 302325Z 3100/3124 31009KT P6SM FEW060
     FM310130 30003KT P6SM SKC
     FM311000 28003KT 6SM BR FEW010
     FM311500 27006KT P6SM FEW045=



000
FTUS43 KDVN 302300
TAFDBQ
TAF
KDBQ 302325Z 3100/3124 33010KT P6SM SKC
     FM310130 31003KT P6SM SKC
     FM311000 28004KT 6SM BR FEW010
     FM311500 27007KT P6SM FEW045=



000
FTUS43 KDVN 302300
TAFBRL
TAF
KBRL 302325Z 3100/3124 29004KT P6SM FEW060
     FM310200 31003KT P6SM SKC
     FM311000 30003KT 6SM BR FEW010
     FM311500 26005KT P6SM FEW045=



000
FTUS43 KDVN 301700
TAFMLI
TAF
KMLI 301722Z 3018/3118 33006KT P6SM SCT035
     FM302100 31007KT P6SM BKN035
     FM310200 30003KT P6SM SCT070
     FM311000 28003KT 6SM BR FEW010
     FM311500 27006KT P6SM FEW040=



000
FTUS43 KDVN 301700
TAFDBQ
TAF
KDBQ 301722Z 3018/3118 32007KT P6SM SCT035
     FM302100 32007KT P6SM VCSH BKN035
     FM310200 31003KT P6SM SCT070
     FM311000 28004KT 6SM BR FEW010
     FM311500 27007KT P6SM FEW040=



000
FTUS43 KDVN 301700
TAFBRL
TAF
KBRL 301722Z 3018/3118 31007KT P6SM SCT035
     FM302100 32007KT P6SM BKN035
     FM310200 31003KT P6SM SCT070
     FM311000 30003KT 6SM BR FEW010
     FM311500 26006KT P6SM FEW040=



000
FTUS43 KDVN 301700
TAFCID
TAF
KCID 301722Z 3018/3118 32007KT P6SM SCT035
     FM302100 32007KT P6SM BKN035
     FM310200 31003KT P6SM SCT070
     FM311000 29003KT 6SM BR FEW010
     FM311500 26007KT P6SM FEW040=



000
FTUS43 KDVN 301100
TAFBRL
TAF
KBRL 301135Z 3012/3112 27005KT P6SM SKC
     FM301700 31009KT P6SM SCT050
     FM310200 32003KT P6SM SKC=



000
FTUS43 KDVN 301100
TAFDBQ
TAF
KDBQ 301135Z 3012/3112 29004KT P6SM SCT100
     FM301700 32010KT P6SM SCT050 PROB30 3021/3101 -SHRA BKN035
     FM310200 28004KT P6SM SCT100=



000
FTUS43 KDVN 301100
TAFCID
TAF
KCID 301135Z 3012/3112 27004KT P6SM SKC
     FM301700 31010KT P6SM SCT050 PROB30 3021/3101 -SHRA BKN035
     FM310200 28004KT P6SM SCT100=



000
FTUS43 KDVN 301100
TAFMLI
TAF
KMLI 301135Z 3012/3112 28005KT P6SM SKC
     FM301700 31010KT P6SM SCT050 PROB30 3021/3101 -SHRA BKN035
     FM310200 28004KT P6SM SCT100=



000
FTUS43 KDVN 301100 AAA
TAFCID
TAF AMD
KCID 301103Z 3011/3106 27004KT P6SM SKC
      TEMPO 3012/3013 5SM BR
     FM301500 30008KT P6SM SCT050 BKN080 PROB30 3021/3101 -SHRA
      BKN040=



000
FTUS43 KDVN 301100 AAA
TAFDBQ
TAF AMD
KDBQ 301103Z 3011/3106 VRB03KT P6SM SCT100
     FM301500 32007KT P6SM SCT050 BKN080 PROB30 3021/3101 -SHRA
      BKN040=



000
FTUS43 KDVN 301000 AAA
TAFBRL
TAF AMD
KBRL 301056Z 3011/3106 VRB03KT P6SM SKC
      TEMPO 3012/3013 4SM BR
     FM301600 31008KT P6SM SCT050
     FM310200 32003KT P6SM SKC=



000
FTUS43 KDVN 300500
TAFDBQ
TAF
KDBQ 300520Z 3006/3106 03007KT P6SM SCT080 BKN100
     FM300700 34004KT P6SM BKN080
      TEMPO 3010/3013 5SM BR SCT100
     FM301500 32007KT P6SM SCT050 BKN080 PROB30 3021/3101 -SHRA
      BKN040=



000
FTUS43 KDVN 300500
TAFMLI
TAF
KMLI 300520Z 3006/3106 VRB03KT P6SM SCT050
     FM301500 31008KT P6SM SCT050 PROB30 3021/3101 -SHRA BKN040=



000
FTUS43 KDVN 300500
TAFBRL
TAF
KBRL 300520Z 3006/3106 29004KT P6SM SKC
      TEMPO 3009/3013 4SM BR
     FM301600 31008KT P6SM SCT050
     FM310200 32003KT P6SM SKC=



000
FTUS43 KDVN 300500
TAFCID
TAF
KCID 300520Z 3006/3106 29004KT P6SM SKC
      TEMPO 3010/3013 5SM BR
     FM301500 30008KT P6SM SCT050 BKN080 PROB30 3021/3101 -SHRA
      BKN040=



000
FTUS43 KDVN 300200 AAA
TAFDBQ
TAF AMD
KDBQ 300214Z 3002/3024 29006KT P6SM VCSH BKN090
     FM300400 31004KT P6SM SCT090
      TEMPO 3010/3013 5SM BR
     FM301500 31008KT P6SM SCT050=



000
FTUS43 KDVN 292300
TAFBRL
TAF
KBRL 292320Z 3000/3024 30006KT P6SM SKC
      TEMPO 3009/3013 5SM BR
     FM301600 31008KT P6SM SCT050=



000
FTUS43 KDVN 292300
TAFCID
TAF
KCID 292320Z 3000/3024 30008KT P6SM FEW080
     FM300200 30004KT P6SM SKC
      TEMPO 3010/3013 5SM BR
     FM301500 30008KT P6SM SCT050=



000
FTUS43 KDVN 292300
TAFMLI
TAF
KMLI 292320Z 3000/3024 29009KT P6SM FEW060
     FM300200 30003KT P6SM SKC
     FM301500 30006KT P6SM SCT050=



000
FTUS43 KDVN 292300
TAFDBQ
TAF
KDBQ 292320Z 3000/3024 29010KT P6SM SCT060
     FM300200 30004KT P6SM SKC
      TEMPO 3010/3013 5SM BR
     FM301500 31008KT P6SM SCT050=



000
FTUS43 KDVN 292200 AAB
TAFDBQ
TAF AMD
KDBQ 292219Z 2922/3018 30010KT P6SM SCT050
     FM300200 32004KT P6SM SCT060
      TEMPO 3009/3012 6SM BR
     FM301500 32006KT P6SM FEW060=



000
FTUS43 KDVN 292000 AAA
TAFDBQ
TAF AMD
KDBQ 292059Z 2921/3018 32010KT P6SM VCSH BKN050
     FM300200 32004KT P6SM SCT060
     FM301000 32003KT 6SM BR SCT010
     FM301500 32006KT P6SM FEW060=



000
FTUS43 KDVN 292000 AAA
TAFMLI
TAF AMD
KMLI 292004Z 2920/3018 30011KT P6SM BKN050
     FM300200 30003KT P6SM SCT060
     FM301500 30006KT P6SM FEW060=



000
FTUS43 KDVN 291700
TAFCID
TAF
KCID 291720Z 2918/3018 30010KT P6SM BKN050
     FM300200 31004KT P6SM SCT060
     FM301000 31004KT 6SM BR FEW010
     FM301500 31005KT P6SM FEW060=



000
FTUS43 KDVN 291700
TAFMLI
TAF
KMLI 291720Z 2918/3018 32009KT P6SM BKN050
     FM300200 30003KT P6SM SCT060
     FM301500 30006KT P6SM FEW060=



000
FTUS43 KDVN 291700
TAFBRL
TAF
KBRL 291720Z 2918/3018 31008KT P6SM BKN050
     FM300200 31003KT P6SM SCT060
     FM301000 30003KT 6SM BR FEW010
     FM301500 31006KT P6SM FEW060=



000
FTUS43 KDVN 291700
TAFDBQ
TAF
KDBQ 291720Z 2918/3018 32010KT P6SM BKN050
     FM300200 32004KT P6SM SCT060
     FM301000 32003KT 6SM BR SCT010
     FM301500 32006KT P6SM FEW060=



000
FTUS43 KDVN 291200 AAA
TAFBRL
TAF AMD
KBRL 291247Z 2913/3012 32005KT P6SM SKC
     FM291700 32008KT P6SM SCT050
     FM300100 28004KT P6SM SKC=



000
FTUS43 KDVN 291100 CCA
TAFBRL
TAF COR
KBRL 291126Z 2912/3012 32005KT P6SM SKC
      TEMPO 2912/2913 1SM BR SCT004
     FM291700 32008KT P6SM SCT050
     FM300100 28004KT P6SM SKC=



000
FTUS43 KDVN 291100
TAFDBQ
TAF
KDBQ 291122Z 2912/3012 28006KT P6SM SKC
     FM291600 32011KT P6SM BKN050
     FM300100 VRB03KT P6SM SCT070=



000
FTUS43 KDVN 291100
TAFBRL
TAF
KBRL 291122Z 2912/3012 32005KT P6SM SKC
      TEMPO 2912/2913 4SM BR SCT010
     FM291700 32008KT P6SM SCT050
     FM300100 28004KT P6SM SKC=



000
FTUS43 KDVN 291100
TAFMLI
TAF
KMLI 291122Z 2912/3012 29006KT P6SM SKC
     FM291700 31010KT P6SM BKN050
     FM300100 28004KT P6SM SCT070=



000
FTUS43 KDVN 291100
TAFCID
TAF
KCID 291122Z 2912/3012 29007KT P6SM SKC
     FM291700 31010KT P6SM BKN050
     FM300100 VRB03KT P6SM FEW080=



    US Dept of Commerce
    National Oceanic and Atmospheric Administration
    National Weather Service
    1325 East West Highway
    Silver Spring, MD 20910
    Page Author: NWS Internet Services Team
Disclaimer
Information Quality
Credits
Glossary
Privacy Policy
Freedom of Information Act (FOIA)
About Us
Career Opportunities